createdAt,value
2022-11-15T00:00:36.936Z,101305.34
2022-11-15T00:04:57.086Z,101291.91
2022-11-15T00:09:17.210Z,101295.47
2022-11-15T00:13:37.285Z,101282.34
2022-11-15T00:17:57.161Z,101287.63
2022-11-15T00:22:17.371Z,101284.88
2022-11-15T00:26:37.527Z,101270.72
2022-11-15T00:31:06.228Z,101273.41
2022-11-15T00:35:26.043Z,101258.44
2022-11-15T00:39:46.236Z,101260.19
2022-11-15T00:44:06.192Z,101250.44
2022-11-15T00:48:26.064Z,101253.09
2022-11-15T00:52:46.430Z,101248.69
2022-11-15T00:57:06.347Z,101239.84
2022-11-15T01:01:26.708Z,101249.47
2022-11-15T01:05:46.755Z,101241.59
2022-11-15T01:10:07.379Z,101230.28
2022-11-15T01:14:27.718Z,101224.97
2022-11-15T01:18:47.631Z,101216.06
2022-11-15T01:23:07.468Z,101222.28
2022-11-15T01:27:27.357Z,101214.16
2022-11-15T01:31:47.495Z,101216.97
2022-11-15T01:36:11.169Z,101202.91
2022-11-15T01:40:31.355Z,101193.22
2022-11-15T01:44:52.651Z,101197.44
2022-11-15T01:49:15.330Z,101198.22
2022-11-15T01:53:38.627Z,101204.63
2022-11-15T01:58:02.196Z,101188.59
2022-11-15T02:02:22.398Z,101197.50
2022-11-15T02:06:43.489Z,101186.03
2022-11-15T02:11:08.613Z,101193.06
2022-11-15T02:15:35.816Z,101191.31
2022-11-15T02:20:23.596Z,101194.84
2022-11-15T02:25:18.755Z,101193.97
2022-11-15T02:30:00.795Z,101195.75
2022-11-15T02:34:23.574Z,101192.28
2022-11-15T02:39:01.300Z,101189.63
2022-11-15T02:43:47.597Z,101181.59
2022-11-15T02:48:09.453Z,101172.63
2022-11-15T02:52:29.336Z,101175.44
2022-11-15T02:56:50.613Z,101185.97
2022-11-15T03:01:33.651Z,101179.59
2022-11-15T03:06:06.472Z,101175.09
2022-11-15T03:10:46.921Z,101164.63
2022-11-15T03:15:30.424Z,101174.19
2022-11-15T03:19:56.982Z,101175.22
2022-11-15T03:24:25.701Z,101171.75
2022-11-15T03:28:54.027Z,101167.34
2022-11-15T03:33:14.810Z,101158.53
2022-11-15T03:37:41.418Z,101162.94
2022-11-15T03:42:24.605Z,101166.41
2022-11-15T03:46:58.450Z,101163.72
2022-11-15T03:51:19.436Z,101165.38
2022-11-15T03:55:39.426Z,101154.09
2022-11-15T03:59:59.505Z,101161.22
2022-11-15T04:04:19.615Z,101163.84
2022-11-15T04:08:39.384Z,101162.19
2022-11-15T04:12:59.456Z,101163.97
2022-11-15T04:17:19.578Z,101148.03
2022-11-15T04:21:58.178Z,101156.94
2022-11-15T04:26:21.758Z,101151.56
2022-11-15T04:30:42.059Z,101168.47
2022-11-15T04:35:02.123Z,101153.38
2022-11-15T04:39:22.081Z,101147.03
2022-11-15T04:43:41.998Z,101144.31
2022-11-15T04:48:02.171Z,101152.88
2022-11-15T04:52:22.364Z,101156.03
2022-11-15T04:56:42.446Z,101156.16
2022-11-15T05:01:14.927Z,101152.78
2022-11-15T05:05:34.886Z,101156.84
2022-11-15T05:09:55.060Z,101159.59
2022-11-15T05:14:16.017Z,101153.66
2022-11-15T05:18:36.052Z,101156.13
2022-11-15T05:22:58.694Z,101143.00
2022-11-15T05:27:18.770Z,101132.50
2022-11-15T05:31:42.206Z,101128.88
2022-11-15T05:36:08.561Z,101135.00
2022-11-15T05:40:30.971Z,101134.50
2022-11-15T05:44:51.196Z,101126.69
2022-11-15T05:49:15.680Z,101123.97
2022-11-15T05:53:37.700Z,101132.66
2022-11-15T05:57:57.616Z,101142.31
2022-11-15T06:02:17.621Z,101148.50
2022-11-15T06:06:37.672Z,101145.47
2022-11-15T06:10:57.841Z,101148.22
2022-11-15T06:15:17.716Z,101145.09
2022-11-15T06:19:37.708Z,101151.38
2022-11-15T06:23:57.859Z,101152.53
2022-11-15T06:28:17.909Z,101158.78
2022-11-15T06:32:38.000Z,101163.13
2022-11-15T06:36:58.041Z,101174.84
2022-11-15T06:41:18.690Z,101173.84
2022-11-15T06:45:38.751Z,101179.94
2022-11-15T06:49:58.787Z,101180.56
2022-11-15T06:54:18.863Z,101175.00
2022-11-15T06:58:39.218Z,101186.13
2022-11-15T07:03:02.128Z,101193.09
2022-11-15T07:07:22.081Z,101199.31
2022-11-15T07:11:42.249Z,101199.59
2022-11-15T07:16:11.050Z,101197.31
2022-11-15T07:20:31.058Z,101204.50
2022-11-15T07:24:51.246Z,101200.94
2022-11-15T07:29:11.376Z,101201.91
2022-11-15T07:33:31.957Z,101197.59
2022-11-15T07:38:00.599Z,101198.56
2022-11-15T07:42:39.352Z,101207.50
2022-11-15T07:46:59.488Z,101203.03
2022-11-15T07:51:21.026Z,101212.78
2022-11-15T07:55:42.282Z,101209.38
2022-11-15T08:00:02.621Z,101212.94
2022-11-15T08:04:23.040Z,101218.22
2022-11-15T08:08:43.114Z,101208.53
2022-11-15T08:13:06.637Z,101212.00
2022-11-15T08:17:27.191Z,101215.53
2022-11-15T08:21:47.174Z,101216.44
2022-11-15T08:26:07.166Z,101219.13
2022-11-15T08:30:28.010Z,101215.56
2022-11-15T08:34:48.181Z,101200.53
2022-11-15T08:39:12.288Z,101191.78
2022-11-15T08:43:33.045Z,101190.00
2022-11-15T08:47:54.586Z,101186.47
2022-11-15T08:52:15.667Z,101189.13
2022-11-15T08:56:35.806Z,101192.63
2022-11-15T09:00:56.050Z,101189.09
2022-11-15T09:05:16.555Z,101187.31
2022-11-15T09:09:36.890Z,101192.59
2022-11-15T09:13:56.887Z,101210.31
2022-11-15T09:18:16.860Z,101197.88
2022-11-15T09:22:37.486Z,101210.28
2022-11-15T09:26:57.467Z,101222.59
2022-11-15T09:31:21.003Z,101220.81
2022-11-15T09:35:42.184Z,101218.22
2022-11-15T09:40:02.511Z,101214.69
2022-11-15T09:44:59.831Z,101212.91
2022-11-15T09:49:19.881Z,101204.03
2022-11-15T09:58:21.629Z,101188.97
2022-11-15T10:02:44.131Z,101191.56
2022-11-15T10:06:54.849Z,101195.88
2022-11-15T10:11:35.688Z,101189.69
2022-11-15T10:15:24.346Z,101186.25
2022-11-15T10:19:50.560Z,101182.66
2022-11-15T10:23:54.078Z,101174.75
2022-11-15T10:28:22.595Z,101166.66
2022-11-15T10:32:24.019Z,101161.44
2022-11-15T10:36:26.548Z,101151.63
2022-11-15T10:40:28.006Z,101140.03
2022-11-15T10:44:30.708Z,101142.59
2022-11-15T10:48:32.331Z,101140.03
2022-11-15T10:52:37.130Z,101134.75
2022-11-15T10:56:38.660Z,101131.94
2022-11-15T11:00:40.481Z,101126.63
2022-11-15T11:04:50.989Z,101126.88
2022-11-15T11:09:06.869Z,101122.09
2022-11-15T11:13:22.778Z,101132.34
2022-11-15T11:17:36.992Z,101136.06
2022-11-15T11:21:52.292Z,101129.41
2022-11-15T11:26:29.764Z,101122.84
2022-11-15T11:30:40.042Z,101119.47
2022-11-15T11:35:14.296Z,101115.34
2022-11-15T11:39:38.975Z,101113.25
2022-11-15T11:44:03.355Z,101125.66
2022-11-15T11:48:14.659Z,101116.91
2022-11-15T11:52:32.097Z,101129.50
2022-11-15T11:56:35.894Z,101121.81
2022-11-15T12:00:44.030Z,101126.88
2022-11-15T12:04:51.632Z,101128.59
2022-11-15T12:09:02.129Z,101126.38
2022-11-15T12:13:17.635Z,101129.13
2022-11-15T12:17:24.494Z,101131.69
2022-11-15T12:21:43.970Z,101124.78
2022-11-15T12:26:09.441Z,101118.88
2022-11-15T12:30:17.033Z,101114.50
2022-11-15T12:34:21.412Z,101117.81
2022-11-15T12:39:01.862Z,101112.72
2022-11-15T12:43:25.935Z,101105.69
2022-11-15T12:47:27.803Z,101105.91
2022-11-15T12:51:44.771Z,101095.88
2022-11-15T12:56:17.816Z,101092.66
2022-11-15T13:00:25.264Z,101084.94
2022-11-15T13:04:28.825Z,101089.50
2022-11-15T13:08:37.800Z,101080.06
2022-11-15T13:12:42.581Z,101085.50
2022-11-15T13:16:44.875Z,101090.94
2022-11-15T13:20:46.374Z,101085.41
2022-11-15T13:24:47.820Z,101073.72
2022-11-15T13:28:52.784Z,101071.97
2022-11-15T13:32:54.632Z,101064.13
2022-11-15T13:36:56.596Z,101054.56
2022-11-15T13:40:59.757Z,101050.78
2022-11-15T13:45:03.760Z,101049.25
2022-11-15T13:49:09.205Z,101046.81
2022-11-15T13:53:10.979Z,101032.59
2022-11-15T13:57:26.075Z,101032.34
2022-11-15T14:01:32.494Z,101034.72
2022-11-15T14:05:34.109Z,101044.56
2022-11-15T14:09:38.288Z,101051.28
2022-11-15T14:13:39.929Z,101049.81
2022-11-15T14:17:45.648Z,101056.00
2022-11-15T14:22:14.527Z,101040.03
2022-11-15T14:26:35.503Z,101031.63
2022-11-15T14:30:37.891Z,101036.88
2022-11-15T14:34:42.650Z,101043.72
2022-11-15T14:38:44.588Z,101030.72
2022-11-15T14:42:48.042Z,101038.59
2022-11-15T14:46:49.514Z,101029.00
2022-11-15T14:50:50.940Z,101029.06
2022-11-15T14:54:52.656Z,101029.16
2022-11-15T14:58:55.893Z,101029.34
2022-11-15T15:02:57.783Z,101031.88
2022-11-15T15:07:01.543Z,101033.00
2022-11-15T15:11:03.065Z,101043.56
2022-11-15T15:15:04.855Z,101043.63
2022-11-15T15:19:06.263Z,101025.13
2022-11-15T15:23:19.639Z,101031.63
2022-11-15T15:27:22.109Z,101034.19
2022-11-15T15:31:23.553Z,101040.41
2022-11-15T15:35:45.422Z,101043.88
2022-11-15T15:40:20.904Z,101045.56
2022-11-15T15:44:42.317Z,101041.16
2022-11-15T15:48:44.347Z,101036.63
2022-11-15T15:52:46.036Z,101040.28
2022-11-15T15:56:50.976Z,101047.28
2022-11-15T16:00:55.050Z,101041.34
2022-11-15T16:04:56.515Z,101036.75
2022-11-15T16:09:13.985Z,101038.53
2022-11-15T16:13:16.806Z,101032.22
2022-11-15T16:17:20.963Z,101033.13
2022-11-15T16:21:22.508Z,101027.22
2022-11-15T16:25:24.485Z,101025.63
2022-11-15T16:29:25.970Z,101022.94
2022-11-15T16:33:27.559Z,101023.66
2022-11-15T16:37:29.053Z,101025.53
2022-11-15T16:41:30.975Z,101021.97
2022-11-15T16:45:35.236Z,101027.31
2022-11-15T16:49:36.913Z,101035.97
2022-11-15T16:53:38.663Z,101033.38
2022-11-15T16:57:40.089Z,101024.56
2022-11-15T17:01:52.136Z,101022.75
2022-11-15T17:05:58.514Z,101023.84
2022-11-15T17:09:59.935Z,101028.09
2022-11-15T17:14:01.437Z,101027.97
2022-11-15T17:18:02.882Z,101026.13
2022-11-15T17:22:04.400Z,101018.25
2022-11-15T17:26:30.267Z,101011.31
2022-11-15T17:30:27.858Z,101013.75
2022-11-15T17:34:29.314Z,101011.97
2022-11-15T17:38:31.222Z,101017.16
2022-11-15T17:42:32.878Z,101016.41
2022-11-15T17:46:36.290Z,101023.47
2022-11-15T17:50:37.771Z,101030.44
2022-11-15T17:54:39.243Z,101032.19
2022-11-15T17:58:41.094Z,101034.88
2022-11-15T18:02:42.511Z,101023.41
2022-11-15T18:06:44.005Z,101030.44
2022-11-15T18:10:45.413Z,101030.34
2022-11-15T18:14:46.919Z,101032.41
2022-11-15T18:18:49.359Z,101034.00
2022-11-15T18:22:53.258Z,101020.75
2022-11-15T18:26:55.022Z,101006.59
2022-11-15T18:30:56.427Z,100997.03
2022-11-15T18:34:57.842Z,101005.00
2022-11-15T18:39:04.338Z,101007.63
2022-11-15T18:43:06.039Z,101003.47
2022-11-15T18:47:07.474Z,101014.63
2022-11-15T18:51:14.479Z,101018.91
2022-11-15T18:55:16.240Z,101013.72
2022-11-15T18:59:17.670Z,101009.31
2022-11-15T19:03:23.464Z,101009.97
2022-11-15T19:07:26.117Z,101006.88
2022-11-15T19:11:35.628Z,101005.81
2022-11-15T19:15:37.064Z,101011.19
2022-11-15T19:19:38.523Z,101006.78
2022-11-15T19:23:42.008Z,101001.59
2022-11-15T19:27:43.531Z,101013.88
2022-11-15T19:31:45.515Z,101008.66
2022-11-15T19:35:47.818Z,101015.50
2022-11-15T19:39:49.259Z,101010.22
2022-11-15T19:43:51.906Z,101010.13
2022-11-15T19:47:53.347Z,101010.22
2022-11-15T19:51:54.861Z,101006.78
2022-11-15T19:55:58.031Z,101001.38
2022-11-15T20:00:04.332Z,101006.66
2022-11-15T20:04:09.934Z,100997.13
2022-11-15T20:08:11.641Z,100999.69
2022-11-15T20:12:13.120Z,100999.63
2022-11-15T20:16:17.736Z,101005.00
2022-11-15T20:20:19.331Z,101005.91
2022-11-15T20:24:20.820Z,101003.34
2022-11-15T20:28:27.346Z,100995.47
2022-11-15T20:32:30.423Z,100991.03
2022-11-15T20:36:31.887Z,100994.59
2022-11-15T20:40:33.986Z,100994.50
2022-11-15T20:44:35.389Z,100983.97
2022-11-15T20:48:36.990Z,100987.34
2022-11-15T20:52:58.578Z,100972.41
2022-11-15T20:57:20.037Z,100980.25
2022-11-15T21:01:41.508Z,100989.09
2022-11-15T21:06:03.202Z,100982.88
2022-11-15T21:10:43.497Z,100998.72
2022-11-15T21:15:05.325Z,100986.56
2022-11-15T21:19:31.303Z,100987.19
2022-11-15T21:23:55.501Z,100971.22
2022-11-15T21:28:17.534Z,100964.91
2022-11-15T21:32:19.366Z,100969.66
2022-11-15T21:36:21.355Z,100965.31
2022-11-15T21:40:22.891Z,100957.22
2022-11-15T21:44:24.304Z,100957.13
2022-11-15T21:48:27.123Z,100963.97
2022-11-15T21:52:28.532Z,100953.50
2022-11-15T21:56:30.344Z,100957.00
2022-11-15T22:00:50.447Z,100946.38
2022-11-15T22:04:51.929Z,100924.44
2022-11-15T22:08:53.515Z,100923.66
2022-11-15T22:12:54.919Z,100918.22
2022-11-15T22:16:56.344Z,100918.22
2022-11-15T22:21:10.593Z,100920.91
2022-11-15T22:25:12.161Z,100915.59
2022-11-15T22:29:13.911Z,100919.88
2022-11-15T22:33:16.902Z,100920.91
2022-11-15T22:37:21.185Z,100931.44
2022-11-15T22:41:22.904Z,100947.28
2022-11-15T22:45:24.604Z,100946.53
2022-11-15T22:49:26.121Z,100942.13
2022-11-15T22:53:28.562Z,100956.34
2022-11-15T22:57:29.977Z,100951.94
2022-11-15T23:01:31.376Z,100944.47
2022-11-15T23:05:32.800Z,100934.72
2022-11-15T23:09:34.278Z,100933.25
2022-11-15T23:13:35.709Z,100943.88
2022-11-15T23:17:37.123Z,100930.59
2022-11-15T23:22:02.924Z,100934.03
2022-11-15T23:26:05.229Z,100929.09
2022-11-15T23:30:25.818Z,100922.13
2022-11-15T23:34:27.721Z,100907.91
2022-11-15T23:38:29.268Z,100907.97
2022-11-15T23:42:30.709Z,100913.28
2022-11-15T23:46:32.863Z,100911.06
2022-11-15T23:50:35.911Z,100904.50
2022-11-15T23:54:37.360Z,100896.50
2022-11-15T23:58:39.534Z,100884.06
